Belle Plaine, Minnesota
Current Conditions -  °F | °C
As of 8:34 PM on Wednesday 22 Oct 2014 (Local Time) from KGYL Reporting Station
Scattered Clouds Scattered Clouds  
Wind Chill: 59°   Ceiling: Unl
Heat Index: 59°   Visibility: 10mi
Dew Point: 45°   Wind: 10mph
Humidity: 60%   Direction: 160°SSE
Pressure: 30.02"   Gusts: 18mph
Location:  44.62°N, 93.77°W
Report Text: KGYL 230134Z AUTO 16009G16KT 10SM SCT060 SCT100 15/07 A3002 RMK AO2 T01490073
Loading
Personal Weather Stations






























Interactive Weather Map
Tropical Storm Tracking
New forecast layout! Learn more

10-Day Weather Forecast

Advertisements
Track Severe Weather on mobile